Time;durP1;ratioP1;P1;durP2;ratioP2;P2;SDS_P1;SDS_P2;PMS_P1;PMS_P2;Temp;Humidity;BMP_temperature;BMP_pressure;BME280_temperature;BME280_humidity;BME280_pressure;Samples;Min_cycle;Max_cycle;Signal;HPM_P1;HPM_P2
2021/01/02 00:01:27;;;;;;;27.73;17.70;;;2.20;92.60;;;;;;5076228;28;20304;-85
2021/01/02 00:04:26;;;;;;;28.10;17.50;;;2.20;92.40;;;;;;5078322;28;20203;-85
2021/01/02 00:07:29;;;;;;;27.83;18.20;;;2.20;92.50;;;;;;5070445;28;20234;-86
2021/01/02 00:09:57;;;;;;;27.93;18.87;;;2.20;92.60;;;;;;5075046;28;20207;-85
2021/01/02 00:12:42;;;;;;;26.50;17.80;;;2.20;92.40;;;;;;5069017;28;20569;-86
2021/01/02 00:15:14;;;;;;;27.87;17.83;;;2.20;92.60;;;;;;5078051;28;20190;-86
2021/01/02 00:18:05;;;;;;;27.63;18.47;;;2.20;92.80;;;;;;5077835;28;20225;-85
2021/01/02 00:20:50;;;;;;;27.67;17.30;;;2.20;92.70;;;;;;5076525;28;20556;-85
2021/01/02 00:23:31;;;;;;;26.30;18.00;;;2.20;92.80;;;;;;5078149;28;20239;-84
2021/01/02 00:26:05;;;;;;;26.03;17.50;;;2.20;92.80;;;;;;5077755;28;20692;-85
2021/01/02 00:28:36;;;;;;;25.33;18.13;;;2.20;93.00;;;;;;5077127;28;20596;-85
2021/01/02 00:31:22;;;;;;;26.27;18.00;;;2.10;92.90;;;;;;5076901;28;20602;-85
2021/01/02 00:34:24;;;;;;;26.73;17.77;;;2.00;93.00;;;;;;5063864;28;20197;-85
2021/01/02 00:37:01;;;;;;;26.87;17.20;;;2.20;92.70;;;;;;5071273;28;20582;-85
2021/01/02 00:39:37;;;;;;;36.37;20.87;;;2.20;92.50;;;;;;5079565;28;20254;-85
2021/01/02 00:42:04;;;;;;;27.23;18.13;;;2.30;92.30;;;;;;5081447;28;20242;-85
2021/01/02 00:44:31;;;;;;;27.53;17.97;;;2.30;92.40;;;;;;5078787;28;20197;-85
2021/01/02 00:46:59;;;;;;;26.87;18.20;;;2.30;92.40;;;;;;5078599;28;20290;-85
2021/01/02 00:49:28;;;;;;;26.90;18.63;;;2.30;92.60;;;;;;5082776;28;20209;-86
2021/01/02 00:52:10;;;;;;;30.57;19.13;;;2.20;92.90;;;;;;5092829;28;20761;-87
2021/01/02 00:54:51;;;;;;;25.90;17.47;;;2.20;93.00;;;;;;5057649;28;20671;-85
2021/01/02 00:57:35;;;;;;;24.57;16.50;;;2.30;92.50;;;;;;5071868;28;20236;-86
2021/01/02 01:00:07;;;;;;;25.87;16.40;;;2.40;92.10;;;;;;5073741;28;20219;-85
2021/01/02 01:03:05;;;;;;;23.77;17.23;;;2.40;91.90;;;;;;5076956;28;20233;-85
2021/01/02 01:05:33;;;;;;;23.97;16.50;;;2.20;92.20;;;;;;5074651;28;20396;-85
2021/01/02 01:08:00;;;;;;;25.10;17.47;;;2.20;92.70;;;;;;5077462;28;20228;-85
2021/01/02 01:10:29;;;;;;;27.63;17.50;;;2.40;92.30;;;;;;5082748;28;20340;-85
2021/01/02 01:13:06;;;;;;;22.53;16.53;;;2.40;92.10;;;;;;5077569;28;20223;-86
2021/01/02 01:15:33;;;;;;;26.30;17.50;;;2.40;91.90;;;;;;5074188;28;20225;-86
2021/01/02 01:18:19;;;;;;;25.17;17.13;;;2.50;91.90;;;;;;5064100;28;20218;-86
2021/01/02 01:20:46;;;;;;;24.13;16.90;;;2.40;92.20;;;;;;5066616;28;20228;-85
2021/01/02 01:23:25;;;;;;;26.80;18.03;;;2.50;92.10;;;;;;5075400;28;20637;-86
2021/01/02 01:26:06;;;;;;;24.07;16.83;;;2.40;92.00;;;;;;5073504;28;20675;-86
2021/01/02 01:28:39;;;;;;;25.03;17.17;;;2.30;92.20;;;;;;5077426;28;20289;-86
2021/01/02 01:31:05;;;;;;;26.93;17.77;;;2.10;92.70;;;;;;5075410;28;20228;-85
2021/01/02 01:33:32;;;;;;;23.40;15.70;;;2.20;92.90;;;;;;5068025;28;20578;-86
2021/01/02 01:36:01;;;;;;;23.37;15.70;;;2.20;92.80;;;;;;5068325;28;20636;-85
2021/01/02 01:38:28;;;;;;;25.60;16.37;;;2.30;92.30;;;;;;5072219;28;20205;-85
2021/01/02 01:41:11;;;;;;;24.03;16.93;;;2.40;92.00;;;;;;5071699;28;20233;-85
2021/01/02 01:44:15;;;;;;;24.77;15.90;;;2.40;91.80;;;;;;5079516;28;20544;-85
2021/01/02 01:46:52;;;;;;;26.53;16.27;;;2.40;91.80;;;;;;5066561;28;20232;-85
2021/01/02 01:50:12;;;;;;;24.70;16.93;;;2.50;91.80;;;;;;5065682;28;20535;-85
2021/01/02 01:53:00;;;;;;;23.83;14.83;;;2.50;91.80;;;;;;5063462;28;20221;-86
2021/01/02 01:55:29;;;;;;;23.00;16.20;;;2.30;91.90;;;;;;5066680;28;20284;-85
2021/01/02 01:58:10;;;;;;;22.37;15.23;;;2.30;92.30;;;;;;5072737;28;20217;-85
2021/01/02 02:00:45;;;;;;;21.03;15.30;;;2.40;92.10;;;;;;5070159;28;20573;-85
2021/01/02 02:03:22;;;;;;;21.33;15.27;;;2.50;91.80;;;;;;5077095;28;20204;-87
2021/01/02 02:05:51;;;;;;;23.70;16.43;;;2.50;91.80;;;;;;5066266;28;20201;-85
2021/01/02 02:08:36;;;;;;;24.50;16.33;;;2.60;91.90;;;;;;5075833;28;20203;-85
2021/01/02 02:11:05;;;;;;;24.23;15.60;;;2.60;91.90;;;;;;5072842;28;20720;-85
2021/01/02 02:13:43;;;;;;;23.37;15.53;;;2.60;91.90;;;;;;5074074;28;20209;-85
2021/01/02 02:16:11;;;;;;;24.27;16.03;;;2.50;91.80;;;;;;5068713;28;20646;-86
2021/01/02 02:18:44;;;;;;;21.40;14.97;;;2.50;91.90;;;;;;5066417;28;20194;-85
2021/01/02 02:21:11;;;;;;;21.43;14.73;;;2.40;91.90;;;;;;5073282;28;20221;-85
2021/01/02 02:23:42;;;;;;;23.47;15.90;;;2.40;92.00;;;;;;5065933;28;20190;-85
2021/01/02 02:26:25;;;;;;;23.07;15.23;;;2.50;92.00;;;;;;5069707;28;20801;-85
2021/01/02 02:29:22;;;;;;;21.63;15.00;;;2.50;91.90;;;;;;5073936;28;20254;-85
2021/01/02 02:31:49;;;;;;;22.97;16.00;;;2.50;91.90;;;;;;5073438;28;20220;-85
2021/01/02 02:34:16;;;;;;;22.60;14.97;;;2.60;91.90;;;;;;5074698;28;20220;-85
2021/01/02 02:36:43;;;;;;;22.13;14.80;;;2.50;91.90;;;;;;5073991;28;20294;-85
2021/01/02 02:39:10;;;;;;;20.07;14.80;;;2.50;91.90;;;;;;5082790;28;20218;-85
2021/01/02 02:41:41;;;;;;;22.73;15.40;;;2.50;91.90;;;;;;5073907;28;20223;-84
2021/01/02 02:44:09;;;;;;;22.70;15.37;;;2.50;92.00;;;;;;5074751;28;20557;-85
2021/01/02 02:46:42;;;;;;;23.60;14.90;;;2.40;92.60;;;;;;5067742;28;20224;-85
2021/01/02 02:49:11;;;;;;;22.60;15.03;;;2.40;92.40;;;;;;5076834;28;20197;-85
2021/01/02 02:51:47;;;;;;;21.23;15.60;;;2.30;92.30;;;;;;5074986;28;20247;-84
2021/01/02 02:54:13;;;;;;;17.70;13.07;;;2.30;92.30;;;;;;5075991;28;20201;-85
2021/01/02 02:56:40;;;;;;;20.07;14.20;;;2.20;92.70;;;;;;5076530;28;20243;-85
2021/01/02 02:59:06;;;;;;;19.37;13.70;;;2.20;92.70;;;;;;5075847;28;20636;-85
2021/01/02 03:01:32;;;;;;;17.67;11.70;;;2.10;92.80;;;;;;5074312;28;20225;-85
2021/01/02 03:04:00;;;;;;;16.83;11.67;;;2.10;92.80;;;;;;5077819;28;20569;-85
2021/01/02 03:06:31;;;;;;;15.97;11.73;;;2.10;92.60;;;;;;5077074;28;20221;-86
2021/01/02 03:08:58;;;;;;;16.00;11.40;;;2.10;92.60;;;;;;5091928;28;20219;-87
2021/01/02 03:11:25;;;;;;;16.07;11.50;;;2.10;92.60;;;;;;5074236;28;20220;-85
2021/01/02 03:13:52;;;;;;;16.93;11.73;;;2.20;92.20;;;;;;5071336;28;20204;-85
2021/01/02 03:16:19;;;;;;;15.63;11.60;;;2.20;92.30;;;;;;5055873;28;20233;-85
2021/01/02 03:18:45;;;;;;;16.20;11.10;;;2.30;92.30;;;;;;5071202;28;20558;-86
2021/01/02 03:21:13;;;;;;;16.03;11.00;;;2.30;92.30;;;;;;5070721;28;20236;-85
2021/01/02 03:23:45;;;;;;;15.13;10.60;;;2.30;92.00;;;;;;5070597;28;20204;-85
2021/01/02 03:26:12;;;;;;;14.90;11.00;;;2.40;91.80;;;;;;5068008;28;20228;-87
2021/01/02 03:28:38;;;;;;;17.10;11.40;;;2.40;91.50;;;;;;5069182;28;20323;-85
2021/01/02 03:31:06;;;;;;;12.57;9.17;;;2.30;91.70;;;;;;5071162;28;20557;-85
2021/01/02 03:33:32;;;;;;;11.67;8.97;;;2.20;91.80;;;;;;5071576;28;20204;-85
2021/01/02 03:36:00;;;;;;;12.43;9.63;;;2.20;91.70;;;;;;5071188;28;20231;-85
2021/01/02 03:38:31;;;;;;;16.17;10.40;;;2.20;91.80;;;;;;5071742;28;20205;-85
2021/01/02 03:40:58;;;;;;;14.80;10.43;;;2.10;91.80;;;;;;5067707;28;20225;-85
2021/01/02 03:43:24;;;;;;;12.40;9.73;;;2.10;92.00;;;;;;5071154;28;20212;-85
2021/01/02 03:45:51;;;;;;;13.27;10.10;;;2.20;92.00;;;;;;5072033;28;20656;-85
2021/01/02 03:48:18;;;;;;;13.73;9.67;;;2.30;92.00;;;;;;5072481;28;20204;-85
2021/01/02 03:50:44;;;;;;;13.30;9.20;;;2.40;91.70;;;;;;5064362;28;20204;-85
2021/01/02 03:53:11;;;;;;;11.37;8.90;;;2.40;91.30;;;;;;5065692;28;20197;-85
2021/01/02 03:55:38;;;;;;;11.93;9.13;;;2.30;91.30;;;;;;5072180;28;20555;-85
2021/01/02 03:58:04;;;;;;;13.07;9.93;;;2.20;91.30;;;;;;5072800;28;20567;-85
2021/01/02 04:00:31;;;;;;;14.60;10.13;;;2.20;91.50;;;;;;5065804;28;20305;-85
2021/01/02 04:02:57;;;;;;;12.20;9.53;;;2.20;91.60;;;;;;5076071;28;20223;-85
2021/01/02 04:05:24;;;;;;;15.37;9.97;;;2.20;91.60;;;;;;5076863;28;20208;-85
2021/01/02 04:07:51;;;;;;;15.23;9.83;;;2.10;91.60;;;;;;5078623;28;20217;-85
2021/01/02 04:10:17;;;;;;;14.00;9.70;;;2.20;91.70;;;;;;5070498;28;20660;-85
2021/01/02 04:12:44;;;;;;;14.37;9.50;;;2.10;91.50;;;;;;5070005;28;20229;-86
2021/01/02 04:15:11;;;;;;;13.73;9.30;;;2.10;91.80;;;;;;5067225;28;20302;-86
2021/01/02 04:17:38;;;;;;;14.80;10.30;;;2.10;91.80;;;;;;5071444;28;20692;-85
2021/01/02 04:20:05;;;;;;;15.80;10.83;;;2.10;91.80;;;;;;5079028;28;20197;-85
2021/01/02 04:22:32;;;;;;;13.87;10.13;;;2.00;91.80;;;;;;5070938;28;20244;-86
2021/01/02 04:24:59;;;;;;;16.07;10.40;;;1.90;92.00;;;;;;5055710;28;20545;-86
2021/01/02 04:27:26;;;;;;;14.97;10.67;;;1.90;92.10;;;;;;5070076;28;20227;-85
2021/01/02 04:29:53;;;;;;;13.97;9.97;;;1.80;92.30;;;;;;5074237;28;20201;-86
2021/01/02 04:32:20;;;;;;;15.77;10.97;;;1.70;92.40;;;;;;5072927;28;20570;-85
2021/01/02 04:34:46;;;;;;;15.33;11.00;;;1.70;92.60;;;;;;5074056;28;20199;-85
2021/01/02 04:37:13;;;;;;;17.23;11.10;;;1.70;93.00;;;;;;5074127;28;20742;-85
2021/01/02 04:39:39;;;;;;;13.23;10.47;;;1.60;92.80;;;;;;5077053;28;20212;-85
2021/01/02 04:42:06;;;;;;;14.30;10.53;;;1.50;93.20;;;;;;5067559;28;20224;-86
2021/01/02 04:44:33;;;;;;;13.57;10.07;;;1.50;93.10;;;;;;5081909;28;20261;-85
2021/01/02 04:47:03;;;;;;;14.80;10.60;;;1.40;93.40;;;;;;5073494;28;20274;-85
2021/01/02 04:49:29;;;;;;;15.33;10.97;;;1.40;93.60;;;;;;5067613;28;20200;-85
2021/01/02 04:52:00;;;;;;;14.87;10.40;;;1.30;94.00;;;;;;5063098;28;20238;-85
2021/01/02 04:54:27;;;;;;;14.53;10.33;;;1.40;93.90;;;;;;5072137;28;20714;-85
2021/01/02 04:56:53;;;;;;;15.80;10.77;;;1.40;93.70;;;;;;5072845;28;20232;-86
2021/01/02 04:59:25;;;;;;;15.10;11.30;;;1.30;93.80;;;;;;5067034;28;20632;-85
2021/01/02 05:01:54;;;;;;;14.70;10.30;;;1.30;94.20;;;;;;5073253;28;20224;-85
2021/01/02 05:04:22;;;;;;;15.03;10.67;;;1.30;94.00;;;;;;5066654;28;20200;-86
2021/01/02 05:06:48;;;;;;;15.80;11.10;;;1.40;94.10;;;;;;5073540;28;20674;-85
2021/01/02 05:09:15;;;;;;;14.83;10.50;;;1.30;94.10;;;;;;5072323;28;20201;-85
2021/01/02 05:11:41;;;;;;;14.40;10.53;;;1.30;94.30;;;;;;5074571;28;20220;-85
2021/01/02 05:14:08;;;;;;;15.77;11.27;;;1.30;93.90;;;;;;5077632;28;20219;-85
2021/01/02 05:16:36;;;;;;;15.70;11.33;;;1.40;94.30;;;;;;5069570;28;20232;-84
2021/01/02 05:19:05;;;;;;;15.37;10.43;;;1.30;94.00;;;;;;5077916;28;20201;-85
2021/01/02 05:21:34;;;;;;;15.10;11.10;;;1.40;94.10;;;;;;5075793;28;20221;-85
2021/01/02 05:24:06;;;;;;;16.70;11.47;;;1.40;94.10;;;;;;5071563;28;20652;-84
2021/01/02 05:26:33;;;;;;;16.93;11.47;;;1.50;93.90;;;;;;5089427;28;20212;-86
2021/01/02 05:29:15;;;;;;;17.37;12.47;;;1.50;93.80;;;;;;5083322;28;20201;-86
2021/01/02 05:31:43;;;;;;;15.73;10.87;;;1.50;94.00;;;;;;5058619;28;20217;-86
2021/01/02 05:34:10;;;;;;;16.27;11.27;;;1.70;93.70;;;;;;5084448;28;20558;-85
2021/01/02 05:36:38;;;;;;;15.80;11.23;;;1.70;93.40;;;;;;5067936;28;20220;-85
2021/01/02 05:39:06;;;;;;;15.60;11.10;;;1.60;93.20;;;;;;5074592;28;20197;-87
2021/01/02 05:41:51;;;;;;;15.27;10.70;;;1.70;93.30;;;;;;5070195;28;20569;-84
2021/01/02 05:44:17;;;;;;;14.73;10.27;;;1.60;93.10;;;;;;5078228;28;20219;-85
2021/01/02 05:46:49;;;;;;;15.47;10.73;;;1.70;93.10;;;;;;5076159;28;20228;-85
2021/01/02 05:49:36;;;;;;;15.97;11.33;;;1.70;93.10;;;;;;5078791;28;20619;-85
2021/01/02 05:52:05;;;;;;;15.63;10.37;;;1.70;92.60;;;;;;5080911;28;20217;-85
2021/01/02 05:54:33;;;;;;;13.80;10.47;;;1.70;92.30;;;;;;5093034;28;20197;-84
2021/01/02 05:57:01;;;;;;;13.90;9.70;;;1.70;92.10;;;;;;5077795;28;20236;-85
2021/01/02 05:59:33;;;;;;;16.73;10.83;;;1.70;92.00;;;;;;5072524;28;20228;-86
2021/01/02 06:02:19;;;;;;;15.23;10.30;;;1.70;92.20;;;;;;5080147;28;20225;-86
2021/01/02 06:04:54;;;;;;;14.63;10.77;;;1.70;92.10;;;;;;5080101;28;20735;-85
2021/01/02 06:07:22;;;;;;;15.20;10.60;;;1.60;92.20;;;;;;5074429;28;20224;-85
2021/01/02 06:09:49;;;;;;;15.67;10.67;;;1.60;92.40;;;;;;5073649;28;20209;-86
2021/01/02 06:12:24;;;;;;;14.53;10.80;;;1.60;92.70;;;;;;5075678;28;20233;-85
2021/01/02 06:14:53;;;;;;;14.73;10.10;;;1.60;92.40;;;;;;5070686;28;20551;-85
2021/01/02 06:17:27;;;;;;;14.60;10.67;;;1.60;92.50;;;;;;5074334;28;20237;-85
2021/01/02 06:19:54;;;;;;;14.30;10.90;;;1.60;92.70;;;;;;5086650;28;20212;-86
2021/01/02 06:22:22;;;;;;;14.83;10.73;;;1.50;92.20;;;;;;5074620;28;20225;-85
2021/01/02 06:24:50;;;;;;;13.67;10.43;;;1.60;92.20;;;;;;5070322;28;20280;-85
2021/01/02 06:27:16;;;;;;;15.00;10.57;;;1.60;92.20;;;;;;5077046;28;20592;-87
2021/01/02 06:29:48;;;;;;;15.13;10.73;;;1.60;92.10;;;;;;5069611;28;20554;-86
2021/01/02 06:32:14;;;;;;;15.63;11.37;;;1.70;91.90;;;;;;5066033;28;20225;-85
2021/01/02 06:34:41;;;;;;;15.67;11.10;;;1.70;91.80;;;;;;5067843;28;20194;-85
2021/01/02 06:37:07;;;;;;;14.60;10.87;;;1.60;92.00;;;;;;5077883;28;20220;-85
2021/01/02 06:39:35;;;;;;;15.43;10.97;;;1.60;92.20;;;;;;5074645;28;20239;-86
2021/01/02 06:42:30;;;;;;;16.10;10.73;;;1.60;92.10;;;;;;5075407;28;20232;-85
2021/01/02 06:44:57;;;;;;;14.60;10.47;;;1.60;92.00;;;;;;5068280;28;20720;-85
2021/01/02 06:47:32;;;;;;;17.07;11.40;;;1.60;91.70;;;;;;5075273;28;20232;-85
2021/01/02 06:49:58;;;;;;;16.43;11.37;;;1.70;91.70;;;;;;5087987;28;20205;-85
2021/01/02 06:52:32;;;;;;;15.90;11.07;;;1.70;92.00;;;;;;5074369;28;20249;-85
2021/01/02 06:55:21;;;;;;;16.67;11.37;;;1.70;91.80;;;;;;5075154;28;20235;-86
2021/01/02 06:57:48;;;;;;;14.40;11.70;;;1.70;91.70;;;;;;5071101;28;20229;-82
2021/01/02 07:00:23;;;;;;;15.63;10.90;;;1.60;91.70;;;;;;5071663;28;20221;-86
2021/01/02 07:02:49;;;;;;;16.13;11.60;;;1.60;91.90;;;;;;5071029;28;20217;-86
2021/01/02 07:05:43;;;;;;;16.63;11.93;;;1.60;92.10;;;;;;5075223;28;20205;-85
2021/01/02 07:08:39;;;;;;;16.70;11.43;;;1.60;91.70;;;;;;5074305;28;20227;-85
2021/01/02 07:11:30;;;;;;;19.00;12.53;;;1.60;91.80;;;;;;5065094;28;20223;-85
2021/01/02 07:14:19;;;;;;;16.83;11.20;;;1.60;91.70;;;;;;5076385;28;20199;-86
2021/01/02 07:16:49;;;;;;;17.10;12.20;;;1.50;92.00;;;;;;5081757;28;20225;-85
2021/01/02 07:19:38;;;;;;;16.47;12.40;;;1.50;92.20;;;;;;5073932;28;20200;-85
2021/01/02 07:22:07;;;;;;;17.73;11.80;;;1.60;92.20;;;;;;5070529;28;20263;-86
2021/01/02 07:24:39;;;;;;;18.10;12.53;;;1.50;91.90;;;;;;5069775;28;20798;-85
2021/01/02 07:27:08;;;;;;;17.07;12.10;;;1.40;92.10;;;;;;5072755;28;20221;-85
2021/01/02 07:29:35;;;;;;;17.50;13.00;;;1.40;92.30;;;;;;5073736;28;20203;-87
2021/01/02 07:32:09;;;;;;;18.50;12.67;;;1.40;92.80;;;;;;5073362;28;20216;-84
2021/01/02 07:34:36;;;;;;;18.53;11.73;;;1.30;92.80;;;;;;5076098;28;20235;-84
2021/01/02 07:37:07;;;;;;;16.27;11.80;;;1.30;92.90;;;;;;5075293;28;20232;-85
2021/01/02 07:39:35;;;;;;;18.40;12.83;;;1.40;93.00;;;;;;5078357;28;20258;-86
2021/01/02 07:42:10;;;;;;;18.73;12.67;;;1.40;93.10;;;;;;5074471;28;20227;-85
2021/01/02 07:44:38;;;;;;;16.73;11.60;;;1.40;92.90;;;;;;5064678;28;20238;-85
2021/01/02 07:47:05;;;;;;;17.03;12.17;;;1.50;92.80;;;;;;5078461;28;20607;-85
2021/01/02 07:49:32;;;;;;;17.63;12.80;;;1.50;93.00;;;;;;5073222;28;20201;-86
2021/01/02 07:51:59;;;;;;;18.83;12.93;;;1.60;92.60;;;;;;5072994;28;20231;-85
2021/01/02 07:54:37;;;;;;;18.63;13.27;;;1.60;92.40;;;;;;5075417;28;20214;-85
2021/01/02 07:57:06;;;;;;;21.40;13.23;;;1.60;92.30;;;;;;5074997;28;20712;-85
2021/01/02 07:59:35;;;;;;;20.07;13.80;;;1.60;92.40;;;;;;5070416;28;20578;-86
2021/01/02 08:02:03;;;;;;;19.27;13.83;;;1.60;92.30;;;;;;5072043;28;20221;-85
2021/01/02 08:04:31;;;;;;;21.43;13.40;;;1.60;92.30;;;;;;5074144;28;20221;-86
2021/01/02 08:07:00;;;;;;;21.00;13.70;;;1.60;92.30;;;;;;5074556;28;20281;-85
2021/01/02 08:09:27;;;;;;;19.00;13.17;;;1.60;92.40;;;;;;5075103;28;20201;-86
2021/01/02 08:11:59;;;;;;;18.27;12.80;;;1.80;92.70;;;;;;5076070;28;20226;-85
2021/01/02 08:14:29;;;;;;;20.00;13.77;;;1.90;92.50;;;;;;5077636;28;20205;-85
2021/01/02 08:17:03;;;;;;;19.23;12.83;;;1.90;91.80;;;;;;5068421;28;20266;-86
2021/01/02 08:19:31;;;;;;;19.43;13.77;;;1.80;91.70;;;;;;5078019;28;20204;-86
2021/01/02 08:21:59;;;;;;;17.90;13.07;;;1.80;91.70;;;;;;5080547;28;20219;-86
2021/01/02 08:24:25;;;;;;;17.93;12.97;;;1.80;91.80;;;;;;5069254;28;20244;-86
2021/01/02 08:26:51;;;;;;;20.33;13.67;;;1.70;91.70;;;;;;5083594;28;20624;-87
2021/01/02 08:29:18;;;;;;;19.87;13.67;;;1.70;91.90;;;;;;5078096;28;20205;-85
2021/01/02 08:31:52;;;;;;;18.53;13.80;;;1.70;92.00;;;;;;5076959;28;20220;-86
2021/01/02 08:34:27;;;;;;;21.60;14.47;;;1.70;92.00;;;;;;5073521;28;20201;-86
2021/01/02 08:36:58;;;;;;;19.80;13.23;;;1.80;91.80;;;;;;5069544;28;20219;-86
2021/01/02 08:39:25;;;;;;;19.70;13.40;;;1.90;91.80;;;;;;5072416;28;20265;-86
2021/01/02 08:41:55;;;;;;;19.63;13.60;;;2.00;91.80;;;;;;5070330;28;20229;-85
2021/01/02 08:44:27;;;;;;;16.77;12.33;;;1.90;91.20;;;;;;5071646;28;20201;-86
2021/01/02 08:46:53;;;;;;;20.87;13.40;;;1.80;91.10;;;;;;5071079;28;20278;-86
2021/01/02 08:49:36;;;;;;;19.43;13.23;;;1.90;91.50;;;;;;5056138;28;20206;-86
2021/01/02 08:52:25;;;;;;;17.87;12.83;;;1.90;91.10;;;;;;5073207;28;20221;-86
2021/01/02 08:54:54;;;;;;;18.63;13.27;;;2.10;90.80;;;;;;5074876;28;20251;-86
2021/01/02 08:57:28;;;;;;;19.80;13.30;;;2.10;90.60;;;;;;5074479;28;20229;-85
2021/01/02 09:00:20;;;;;;;19.20;13.17;;;2.30;90.60;;;;;;5086799;28;20213;-85
2021/01/02 09:02:49;;;;;;;19.20;13.47;;;2.40;90.30;;;;;;5063364;28;20655;-85
2021/01/02 09:05:18;;;;;;;17.80;13.50;;;2.40;90.10;;;;;;5075646;28;20201;-85
2021/01/02 09:07:55;;;;;;;17.70;12.93;;;2.40;88.90;;;;;;5074594;28;20579;-85
2021/01/02 09:10:31;;;;;;;19.67;13.60;;;2.30;88.80;;;;;;5068062;28;20205;-85
2021/01/02 09:13:19;;;;;;;20.43;13.40;;;2.20;89.10;;;;;;5076827;28;20224;-85
2021/01/02 09:15:51;;;;;;;19.17;13.53;;;2.10;89.60;;;;;;5076022;28;20200;-85
2021/01/02 09:18:19;;;;;;;20.33;13.93;;;2.00;90.20;;;;;;5079533;28;20231;-85
2021/01/02 09:20:46;;;;;;;20.10;13.73;;;1.90;90.40;;;;;;5076665;28;20246;-85
2021/01/02 09:23:13;;;;;;;18.33;13.50;;;1.90;90.20;;;;;;5077455;28;20196;-85
2021/01/02 09:25:40;;;;;;;19.17;13.67;;;1.90;90.20;;;;;;5075450;28;20592;-85
2021/01/02 09:28:14;;;;;;;18.57;12.83;;;2.20;90.20;;;;;;5074476;28;20609;-85
2021/01/02 09:30:41;;;;;;;19.50;13.70;;;2.40;89.10;;;;;;5066822;28;20193;-85
2021/01/02 09:33:08;;;;;;;18.70;13.30;;;2.30;88.60;;;;;;5077093;28;20193;-85
2021/01/02 09:35:36;;;;;;;18.73;13.60;;;2.20;88.60;;;;;;5075595;28;20206;-85
2021/01/02 09:38:04;;;;;;;19.80;14.20;;;2.20;88.90;;;;;;5075393;28;20213;-85
2021/01/02 09:40:32;;;;;;;19.47;14.03;;;2.10;89.20;;;;;;5072201;28;20197;-85
2021/01/02 09:42:58;;;;;;;24.00;16.10;;;2.10;89.30;;;;;;5075676;28;20221;-86
2021/01/02 09:45:25;;;;;;;21.37;15.63;;;1.90;90.10;;;;;;5071738;28;20217;-86
2021/01/02 09:47:51;;;;;;;21.00;15.77;;;2.00;90.40;;;;;;5073308;28;20224;-85
2021/01/02 09:50:18;;;;;;;19.90;14.73;;;2.10;90.40;;;;;;5074556;28;20200;-85
2021/01/02 09:52:44;;;;;;;20.93;13.77;;;2.00;90.00;;;;;;5076456;28;20237;-84
2021/01/02 09:55:11;;;;;;;24.83;16.07;;;1.80;90.30;;;;;;5075495;28;20199;-86
2021/01/02 09:57:39;;;;;;;20.17;14.60;;;1.90;90.40;;;;;;5075130;28;20228;-85
2021/01/02 10:00:07;;;;;;;21.27;14.83;;;1.80;90.40;;;;;;5073234;28;20224;-85
2021/01/02 10:02:34;;;;;;;19.57;14.20;;;1.90;90.40;;;;;;5060537;28;20236;-85
2021/01/02 10:05:00;;;;;;;23.07;14.93;;;1.90;90.10;;;;;;5072827;28;20196;-85
2021/01/02 10:07:27;;;;;;;23.93;13.80;;;1.90;90.30;;;;;;5072398;28;20228;-85
2021/01/02 10:09:53;;;;;;;21.00;14.57;;;1.90;90.10;;;;;;5073565;28;20196;-85
2021/01/02 10:12:20;;;;;;;22.03;14.53;;;2.00;90.20;;;;;;5074854;28;20231;-85
2021/01/02 10:14:47;;;;;;;20.77;14.47;;;2.10;89.20;;;;;;5065009;28;20196;-86
2021/01/02 10:17:15;;;;;;;20.50;14.00;;;2.10;90.00;;;;;;5076435;28;20254;-86
2021/01/02 10:19:42;;;;;;;19.60;14.60;;;2.20;89.50;;;;;;5074571;28;20200;-84
2021/01/02 10:22:09;;;;;;;22.13;13.90;;;2.20;89.00;;;;;;5076213;28;20737;-85
2021/01/02 10:24:35;;;;;;;20.33;13.40;;;2.20;88.00;;;;;;5066598;28;20668;-86
2021/01/02 10:27:02;;;;;;;18.13;12.77;;;2.30;87.30;;;;;;5067070;28;20687;-86
2021/01/02 10:29:29;;;;;;;18.27;13.47;;;2.30;87.20;;;;;;5072888;28;20201;-85
2021/01/02 10:31:59;;;;;;;19.63;13.70;;;2.20;87.20;;;;;;5071734;28;20234;-85
2021/01/02 10:34:26;;;;;;;21.47;13.20;;;2.20;87.20;;;;;;5072396;28;20205;-86
2021/01/02 10:36:52;;;;;;;17.67;13.20;;;2.20;86.60;;;;;;5072428;28;20225;-86
2021/01/02 10:39:19;;;;;;;19.80;14.03;;;2.20;86.20;;;;;;5071936;28;20288;-85
2021/01/02 10:41:46;;;;;;;20.27;13.57;;;2.20;86.30;;;;;;5077718;28;20217;-85
2021/01/02 10:44:13;;;;;;;18.60;13.10;;;2.20;86.10;;;;;;5072305;28;20215;-86
2021/01/02 10:46:44;;;;;;;17.83;13.17;;;2.30;85.30;;;;;;5071615;28;20801;-86
2021/01/02 10:49:11;;;;;;;21.57;14.40;;;2.30;84.80;;;;;;5071345;28;20197;-85
2021/01/02 10:51:39;;;;;;;19.07;14.53;;;2.20;85.00;;;;;;5064308;28;20228;-84
2021/01/02 10:54:06;;;;;;;21.27;14.83;;;2.20;85.60;;;;;;5065643;28;20193;-86
2021/01/02 10:56:32;;;;;;;22.57;14.20;;;2.10;86.40;;;;;;5070132;28;20229;-85
2021/01/02 10:58:59;;;;;;;19.57;14.07;;;2.10;87.10;;;;;;5071742;28;20360;-85
2021/01/02 11:01:26;;;;;;;21.13;14.70;;;2.00;87.10;;;;;;5063843;28;20232;-85
2021/01/02 11:03:52;;;;;;;20.83;14.63;;;2.00;87.10;;;;;;5072384;28;20200;-85
2021/01/02 11:06:20;;;;;;;19.77;14.47;;;2.10;87.10;;;;;;5071044;28;20225;-85
2021/01/02 11:08:47;;;;;;;20.27;14.33;;;2.10;87.20;;;;;;5072176;28;20201;-85
2021/01/02 11:11:19;;;;;;;20.87;14.63;;;2.20;87.40;;;;;;5075363;28;20278;-86
2021/01/02 11:13:45;;;;;;;20.33;15.20;;;2.20;87.20;;;;;;5074364;28;20193;-85
2021/01/02 11:16:12;;;;;;;20.37;14.30;;;2.20;87.20;;;;;;5073105;28;20244;-88
2021/01/02 11:18:39;;;;;;;22.17;14.83;;;2.30;86.00;;;;;;5062218;28;20194;-85
2021/01/02 11:21:09;;;;;;;20.60;14.00;;;2.30;85.80;;;;;;5067156;28;20225;-85
2021/01/02 11:23:36;;;;;;;20.03;14.57;;;2.30;86.00;;;;;;5072179;28;20200;-85
2021/01/02 11:26:07;;;;;;;21.23;15.03;;;2.20;87.20;;;;;;5072351;28;20232;-85
2021/01/02 11:28:34;;;;;;;23.07;15.23;;;2.20;86.30;;;;;;5073383;28;20592;-85
2021/01/02 11:31:00;;;;;;;22.97;15.67;;;2.00;87.10;;;;;;5069006;28;20234;-85
2021/01/02 11:33:26;;;;;;;26.40;16.00;;;2.00;87.10;;;;;;5076269;28;20197;-86
2021/01/02 11:35:53;;;;;;;23.10;15.57;;;2.00;87.10;;;;;;5073244;28;20253;-85
2021/01/02 11:38:19;;;;;;;23.47;15.67;;;1.90;87.00;;;;;;5074198;28;20229;-86
2021/01/02 11:40:49;;;;;;;24.30;16.07;;;2.00;87.10;;;;;;5074345;28;20196;-84
2021/01/02 11:43:15;;;;;;;25.97;16.57;;;1.90;87.00;;;;;;5075106;28;20197;-85
2021/01/02 11:45:42;;;;;;;25.90;17.30;;;2.00;87.10;;;;;;5071490;28;20652;-85
2021/01/02 11:48:08;;;;;;;27.23;17.50;;;1.90;87.50;;;;;;5067553;28;20217;-86
2021/01/02 11:50:35;;;;;;;28.23;17.47;;;1.90;88.80;;;;;;5074477;28;20201;-85
2021/01/02 11:53:01;;;;;;;28.50;18.37;;;1.90;88.90;;;;;;5069879;28;20225;-85
2021/01/02 11:55:28;;;;;;;27.03;18.27;;;1.90;88.90;;;;;;5074306;28;20208;-85
2021/01/02 11:57:55;;;;;;;27.77;18.57;;;1.90;89.20;;;;;;5074667;28;20236;-84
2021/01/02 12:00:22;;;;;;;29.97;19.40;;;1.90;88.60;;;;;;5075200;28;20289;-85
2021/01/02 12:02:49;;;;;;;31.27;19.90;;;1.90;89.30;;;;;;5072266;28;20218;-85
2021/01/02 12:05:15;;;;;;;29.20;19.00;;;1.90;88.80;;;;;;5072859;28;20201;-84
2021/01/02 12:07:41;;;;;;;31.87;19.90;;;1.80;89.40;;;;;;5075618;28;20212;-85
2021/01/02 12:10:08;;;;;;;33.60;21.10;;;1.90;90.00;;;;;;5077202;28;20204;-85
2021/01/02 12:12:35;;;;;;;32.03;21.40;;;1.80;90.00;;;;;;5074977;28;20217;-85
2021/01/02 12:15:04;;;;;;;33.87;19.87;;;1.80;90.20;;;;;;5073978;28;20262;-85
2021/01/02 12:17:31;;;;;;;38.10;21.43;;;1.70;90.00;;;;;;5074380;28;20234;-85
2021/01/02 12:19:59;;;;;;;33.53;20.97;;;1.70;90.30;;;;;;5070579;28;20201;-85
2021/01/02 12:22:25;;;;;;;39.17;22.83;;;1.70;90.40;;;;;;5072886;28;20281;-85
2021/01/02 12:24:52;;;;;;;36.60;21.93;;;1.70;90.40;;;;;;5066858;28;20197;-85
2021/01/02 12:27:18;;;;;;;35.40;21.60;;;1.60;90.50;;;;;;5072419;28;20240;-86
2021/01/02 12:29:45;;;;;;;35.10;22.37;;;1.60;90.60;;;;;;5074656;28;20742;-86
2021/01/02 12:32:12;;;;;;;38.50;23.03;;;1.60;91.00;;;;;;5072939;28;20236;-84
2021/01/02 12:34:41;;;;;;;38.40;24.03;;;1.50;90.90;;;;;;5080195;28;20243;-85
2021/01/02 12:37:10;;;;;;;38.27;22.70;;;1.50;90.90;;;;;;5074182;28;20236;-85
2021/01/02 12:39:36;;;;;;;40.33;23.13;;;1.50;91.00;;;;;;5074411;28;20197;-85
2021/01/02 12:42:04;;;;;;;39.57;23.07;;;1.40;90.90;;;;;;5074986;28;20231;-86
2021/01/02 12:44:30;;;;;;;39.00;22.33;;;1.50;90.70;;;;;;5075791;28;20647;-84
2021/01/02 12:46:59;;;;;;;35.63;22.23;;;1.50;90.60;;;;;;5075424;28;20220;-84
2021/01/02 12:49:30;;;;;;;40.93;23.43;;;1.50;90.60;;;;;;5077483;28;20201;-86
2021/01/02 12:51:58;;;;;;;39.03;23.90;;;1.40;90.60;;;;;;5078785;28;20358;-84
2021/01/02 12:54:25;;;;;;;46.90;25.37;;;1.40;90.80;;;;;;5078314;28;20208;-85
2021/01/02 12:56:53;;;;;;;41.43;24.10;;;1.40;90.90;;;;;;5078875;28;20246;-84